sensor_id;sensor_type;location;lat;lon;timestamp;temperature;humidity
37844;DHT22;63793;57.632;18.292;2023-04-25T00:01:54;8.20;99.90
37844;DHT22;63793;57.632;18.292;2023-04-25T00:04:21;8.20;99.90
37844;DHT22;63793;57.632;18.292;2023-04-25T00:06:48;8.20;99.90
37844;DHT22;63793;57.632;18.292;2023-04-25T00:09:15;8.20;99.90
37844;DHT22;63793;57.632;18.292;2023-04-25T00:11:42;8.20;99.90
37844;DHT22;63793;57.632;18.292;2023-04-25T00:14:09;8.30;99.90
37844;DHT22;63793;57.632;18.292;2023-04-25T00:16:36;8.30;99.90
37844;DHT22;63793;57.632;18.292;2023-04-25T00:19:03;8.30;99.90
37844;DHT22;63793;57.632;18.292;2023-04-25T00:21:31;8.30;99.90
37844;DHT22;63793;57.632;18.292;2023-04-25T00:24:00;8.30;99.90
37844;DHT22;63793;57.632;18.292;2023-04-25T00:26:27;8.30;99.90
37844;DHT22;63793;57.632;18.292;2023-04-25T00:28:54;8.30;99.90
37844;DHT22;63793;57.632;18.292;2023-04-25T00:31:22;8.30;99.90
37844;DHT22;63793;57.632;18.292;2023-04-25T00:33:49;8.40;99.90
37844;DHT22;63793;57.632;18.292;2023-04-25T00:36:16;8.40;99.90
37844;DHT22;63793;57.632;18.292;2023-04-25T00:38:43;8.40;99.90
37844;DHT22;63793;57.632;18.292;2023-04-25T00:41:10;8.40;99.90
37844;DHT22;63793;57.632;18.292;2023-04-25T00:43:39;8.40;99.90
37844;DHT22;63793;57.632;18.292;2023-04-25T00:46:06;8.40;99.90
37844;DHT22;63793;57.632;18.292;2023-04-25T00:48:33;8.40;99.90
37844;DHT22;63793;57.632;18.292;2023-04-25T00:51:00;8.40;99.90
37844;DHT22;63793;57.632;18.292;2023-04-25T00:53:28;8.50;99.90
37844;DHT22;63793;57.632;18.292;2023-04-25T00:55:56;8.50;99.90
37844;DHT22;63793;57.632;18.292;2023-04-25T00:58:23;8.50;99.90
37844;DHT22;63793;57.632;18.292;2023-04-25T01:00:51;8.50;99.90
37844;DHT22;63793;57.632;18.292;2023-04-25T01:03:19;8.50;99.90
37844;DHT22;63793;57.632;18.292;2023-04-25T01:05:50;8.60;99.90
37844;DHT22;63793;57.632;18.292;2023-04-25T01:08:17;8.60;99.90
37844;DHT22;63793;57.632;18.292;2023-04-25T01:10:44;8.60;99.90
37844;DHT22;63793;57.632;18.292;2023-04-25T01:13:11;8.60;99.90
37844;DHT22;63793;57.632;18.292;2023-04-25T01:15:38;8.60;99.90
37844;DHT22;63793;57.632;18.292;2023-04-25T01:18:05;8.60;99.90
37844;DHT22;63793;57.632;18.292;2023-04-25T01:20:33;8.60;99.90
37844;DHT22;63793;57.632;18.292;2023-04-25T01:23:00;8.70;99.90
37844;DHT22;63793;57.632;18.292;2023-04-25T01:25:30;8.70;99.90
37844;DHT22;63793;57.632;18.292;2023-04-25T01:27:58;8.60;99.90
37844;DHT22;63793;57.632;18.292;2023-04-25T01:30:29;8.70;99.90
37844;DHT22;63793;57.632;18.292;2023-04-25T01:32:56;8.70;99.90
37844;DHT22;63793;57.632;18.292;2023-04-25T01:35:24;8.70;99.90
37844;DHT22;63793;57.632;18.292;2023-04-25T01:37:53;8.60;99.90
37844;DHT22;63793;57.632;18.292;2023-04-25T01:40:21;8.70;99.90
37844;DHT22;63793;57.632;18.292;2023-04-25T01:42:49;8.60;99.90
37844;DHT22;63793;57.632;18.292;2023-04-25T01:45:17;8.60;99.90
37844;DHT22;63793;57.632;18.292;2023-04-25T01:47:44;8.60;99.90
37844;DHT22;63793;57.632;18.292;2023-04-25T01:50:17;8.60;99.90
37844;DHT22;63793;57.632;18.292;2023-04-25T01:52:45;8.50;99.90
37844;DHT22;63793;57.632;18.292;2023-04-25T01:55:12;8.50;99.90
37844;DHT22;63793;57.632;18.292;2023-04-25T01:57:48;8.50;99.90
37844;DHT22;63793;57.632;18.292;2023-04-25T02:00:16;8.40;99.90
37844;DHT22;63793;57.632;18.292;2023-04-25T02:02:43;8.50;99.90
37844;DHT22;63793;57.632;18.292;2023-04-25T02:05:20;8.50;99.90
37844;DHT22;63793;57.632;18.292;2023-04-25T02:07:47;8.50;99.90
37844;DHT22;63793;57.632;18.292;2023-04-25T02:10:15;8.50;99.90
37844;DHT22;63793;57.632;18.292;2023-04-25T02:13:11;8.50;99.90
37844;DHT22;63793;57.632;18.292;2023-04-25T02:16:01;8.40;99.90
37844;DHT22;63793;57.632;18.292;2023-04-25T02:18:29;8.30;99.90
37844;DHT22;63793;57.632;18.292;2023-04-25T02:20:57;8.30;99.90
37844;DHT22;63793;57.632;18.292;2023-04-25T02:23:24;8.20;99.90
37844;DHT22;63793;57.632;18.292;2023-04-25T02:25:52;8.20;99.90
37844;DHT22;63793;57.632;18.292;2023-04-25T02:28:19;8.20;99.90
37844;DHT22;63793;57.632;18.292;2023-04-25T02:30:46;8.20;99.90
37844;DHT22;63793;57.632;18.292;2023-04-25T02:33:13;8.10;99.90
37844;DHT22;63793;57.632;18.292;2023-04-25T02:35:40;8.10;99.90
37844;DHT22;63793;57.632;18.292;2023-04-25T02:38:07;8.00;99.90
37844;DHT22;63793;57.632;18.292;2023-04-25T02:40:33;8.00;99.90
37844;DHT22;63793;57.632;18.292;2023-04-25T02:43:00;8.00;99.90
37844;DHT22;63793;57.632;18.292;2023-04-25T02:45:27;7.90;99.90
37844;DHT22;63793;57.632;18.292;2023-04-25T02:47:55;7.90;99.90
37844;DHT22;63793;57.632;18.292;2023-04-25T02:50:22;7.80;99.90
37844;DHT22;63793;57.632;18.292;2023-04-25T02:52:49;7.80;99.90
37844;DHT22;63793;57.632;18.292;2023-04-25T02:55:21;7.70;99.90
37844;DHT22;63793;57.632;18.292;2023-04-25T02:57:51;7.80;99.90
37844;DHT22;63793;57.632;18.292;2023-04-25T03:00:29;7.80;99.90
37844;DHT22;63793;57.632;18.292;2023-04-25T03:02:57;7.70;99.90
37844;DHT22;63793;57.632;18.292;2023-04-25T03:05:24;7.70;99.90
37844;DHT22;63793;57.632;18.292;2023-04-25T03:07:51;7.70;99.90
37844;DHT22;63793;57.632;18.292;2023-04-25T03:10:18;7.60;99.90
37844;DHT22;63793;57.632;18.292;2023-04-25T03:12:45;7.60;99.90
37844;DHT22;63793;57.632;18.292;2023-04-25T03:15:12;7.50;99.90
37844;DHT22;63793;57.632;18.292;2023-04-25T03:17:39;7.40;99.90
37844;DHT22;63793;57.632;18.292;2023-04-25T03:20:06;7.40;99.90
37844;DHT22;63793;57.632;18.292;2023-04-25T03:22:36;7.40;99.90
37844;DHT22;63793;57.632;18.292;2023-04-25T03:25:03;7.40;99.90
37844;DHT22;63793;57.632;18.292;2023-04-25T03:27:30;7.30;99.90
37844;DHT22;63793;57.632;18.292;2023-04-25T03:29:57;7.30;99.90
37844;DHT22;63793;57.632;18.292;2023-04-25T03:32:24;7.30;99.90
37844;DHT22;63793;57.632;18.292;2023-04-25T03:34:51;7.30;99.90
37844;DHT22;63793;57.632;18.292;2023-04-25T03:37:18;7.20;99.90
37844;DHT22;63793;57.632;18.292;2023-04-25T03:39:45;7.30;99.90
37844;DHT22;63793;57.632;18.292;2023-04-25T03:42:12;7.30;99.90
37844;DHT22;63793;57.632;18.292;2023-04-25T03:44:39;7.30;99.90
37844;DHT22;63793;57.632;18.292;2023-04-25T03:47:05;7.30;99.90
37844;DHT22;63793;57.632;18.292;2023-04-25T03:49:34;7.20;99.90
37844;DHT22;63793;57.632;18.292;2023-04-25T03:52:02;7.20;99.90
37844;DHT22;63793;57.632;18.292;2023-04-25T03:54:38;7.30;99.90
37844;DHT22;63793;57.632;18.292;2023-04-25T03:57:14;7.20;99.90
37844;DHT22;63793;57.632;18.292;2023-04-25T03:59:42;7.20;99.90
37844;DHT22;63793;57.632;18.292;2023-04-25T04:02:11;7.20;99.90
37844;DHT22;63793;57.632;18.292;2023-04-25T04:04:39;7.20;99.90
37844;DHT22;63793;57.632;18.292;2023-04-25T04:07:06;7.30;99.90
37844;DHT22;63793;57.632;18.292;2023-04-25T04:09:36;7.30;99.90
37844;DHT22;63793;57.632;18.292;2023-04-25T04:12:07;7.20;99.90
37844;DHT22;63793;57.632;18.292;2023-04-25T04:14:36;7.20;99.90
37844;DHT22;63793;57.632;18.292;2023-04-25T04:17:03;7.20;99.90
37844;DHT22;63793;57.632;18.292;2023-04-25T04:19:30;7.20;99.90
37844;DHT22;63793;57.632;18.292;2023-04-25T04:22:13;7.10;99.90
37844;DHT22;63793;57.632;18.292;2023-04-25T04:24:40;7.10;99.90
37844;DHT22;63793;57.632;18.292;2023-04-25T04:27:12;7.20;99.90
37844;DHT22;63793;57.632;18.292;2023-04-25T04:29:53;7.20;99.90
37844;DHT22;63793;57.632;18.292;2023-04-25T04:32:28;7.20;99.90
37844;DHT22;63793;57.632;18.292;2023-04-25T04:34:57;7.20;99.90
37844;DHT22;63793;57.632;18.292;2023-04-25T04:37:24;7.20;99.90
37844;DHT22;63793;57.632;18.292;2023-04-25T04:39:51;7.20;99.90
37844;DHT22;63793;57.632;18.292;2023-04-25T04:42:39;7.20;99.90
37844;DHT22;63793;57.632;18.292;2023-04-25T04:45:31;7.30;99.90
37844;DHT22;63793;57.632;18.292;2023-04-25T04:48:09;7.40;99.90
37844;DHT22;63793;57.632;18.292;2023-04-25T04:51:16;7.40;99.90
37844;DHT22;63793;57.632;18.292;2023-04-25T04:54:06;7.40;99.90
37844;DHT22;63793;57.632;18.292;2023-04-25T04:56:52;7.40;99.90
37844;DHT22;63793;57.632;18.292;2023-04-25T04:59:37;7.40;99.90
37844;DHT22;63793;57.632;18.292;2023-04-25T05:02:21;7.40;99.90
37844;DHT22;63793;57.632;18.292;2023-04-25T05:05:00;7.40;99.90
37844;DHT22;63793;57.632;18.292;2023-04-25T05:07:53;7.40;99.90
37844;DHT22;63793;57.632;18.292;2023-04-25T05:10:40;7.50;99.90
37844;DHT22;63793;57.632;18.292;2023-04-25T05:13:34;7.50;99.90
37844;DHT22;63793;57.632;18.292;2023-04-25T05:16:20;7.50;99.90
37844;DHT22;63793;57.632;18.292;2023-04-25T05:19:07;7.50;99.90
37844;DHT22;63793;57.632;18.292;2023-04-25T05:21:45;7.50;99.90
37844;DHT22;63793;57.632;18.292;2023-04-25T05:24:35;7.60;99.90
37844;DHT22;63793;57.632;18.292;2023-04-25T05:27:07;7.70;99.90
37844;DHT22;63793;57.632;18.292;2023-04-25T05:29:48;7.80;99.90
37844;DHT22;63793;57.632;18.292;2023-04-25T05:32:22;7.80;99.90
37844;DHT22;63793;57.632;18.292;2023-04-25T05:34:51;7.80;99.90
37844;DHT22;63793;57.632;18.292;2023-04-25T05:37:23;7.90;99.90
37844;DHT22;63793;57.632;18.292;2023-04-25T05:40:03;7.90;99.90
37844;DHT22;63793;57.632;18.292;2023-04-25T05:42:45;7.90;99.90
37844;DHT22;63793;57.632;18.292;2023-04-25T05:45:30;8.00;99.90
37844;DHT22;63793;57.632;18.292;2023-04-25T05:48:00;8.00;99.90
37844;DHT22;63793;57.632;18.292;2023-04-25T05:50:54;8.00;99.90
37844;DHT22;63793;57.632;18.292;2023-04-25T05:53:40;8.10;99.90
37844;DHT22;63793;57.632;18.292;2023-04-25T05:56:08;8.10;99.90
37844;DHT22;63793;57.632;18.292;2023-04-25T05:58:35;8.10;99.90
37844;DHT22;63793;57.632;18.292;2023-04-25T06:01:02;8.10;99.90
37844;DHT22;63793;57.632;18.292;2023-04-25T06:03:29;8.10;99.90
37844;DHT22;63793;57.632;18.292;2023-04-25T06:05:58;8.10;99.90
37844;DHT22;63793;57.632;18.292;2023-04-25T06:08:25;8.10;99.90
37844;DHT22;63793;57.632;18.292;2023-04-25T06:10:52;8.10;99.90
37844;DHT22;63793;57.632;18.292;2023-04-25T06:13:19;8.10;99.90
37844;DHT22;63793;57.632;18.292;2023-04-25T06:15:46;8.10;99.90
37844;DHT22;63793;57.632;18.292;2023-04-25T06:18:13;8.10;99.90
37844;DHT22;63793;57.632;18.292;2023-04-25T06:20:39;8.20;99.90
37844;DHT22;63793;57.632;18.292;2023-04-25T06:23:07;8.10;99.90
37844;DHT22;63793;57.632;18.292;2023-04-25T06:25:47;8.10;99.90
37844;DHT22;63793;57.632;18.292;2023-04-25T06:28:14;8.10;99.90
37844;DHT22;63793;57.632;18.292;2023-04-25T06:30:43;8.10;99.90
37844;DHT22;63793;57.632;18.292;2023-04-25T06:33:13;8.10;99.90
37844;DHT22;63793;57.632;18.292;2023-04-25T06:35:41;8.10;99.90
37844;DHT22;63793;57.632;18.292;2023-04-25T06:38:10;8.20;99.90
37844;DHT22;63793;57.632;18.292;2023-04-25T06:40:39;8.20;99.90
37844;DHT22;63793;57.632;18.292;2023-04-25T06:43:08;8.20;99.90
37844;DHT22;63793;57.632;18.292;2023-04-25T06:45:56;8.20;99.90
37844;DHT22;63793;57.632;18.292;2023-04-25T06:48:27;8.10;99.90
37844;DHT22;63793;57.632;18.292;2023-04-25T06:50:54;8.20;99.90
37844;DHT22;63793;57.632;18.292;2023-04-25T06:53:22;8.30;99.90
37844;DHT22;63793;57.632;18.292;2023-04-25T06:55:55;8.50;99.90
37844;DHT22;63793;57.632;18.292;2023-04-25T06:58:23;8.50;99.90
37844;DHT22;63793;57.632;18.292;2023-04-25T07:00:50;8.60;99.90
37844;DHT22;63793;57.632;18.292;2023-04-25T07:03:19;8.80;99.90
37844;DHT22;63793;57.632;18.292;2023-04-25T07:05:48;8.90;99.90
37844;DHT22;63793;57.632;18.292;2023-04-25T07:08:14;8.90;99.90
37844;DHT22;63793;57.632;18.292;2023-04-25T07:10:42;8.90;99.90
37844;DHT22;63793;57.632;18.292;2023-04-25T07:13:09;8.90;99.90
37844;DHT22;63793;57.632;18.292;2023-04-25T07:15:35;9.00;99.90
37844;DHT22;63793;57.632;18.292;2023-04-25T07:18:03;9.10;99.90
37844;DHT22;63793;57.632;18.292;2023-04-25T07:20:30;9.20;99.90
37844;DHT22;63793;57.632;18.292;2023-04-25T07:22:57;9.30;99.90
37844;DHT22;63793;57.632;18.292;2023-04-25T07:25:24;9.20;99.90
37844;DHT22;63793;57.632;18.292;2023-04-25T07:27:52;9.10;99.90
37844;DHT22;63793;57.632;18.292;2023-04-25T07:30:20;9.20;99.90
37844;DHT22;63793;57.632;18.292;2023-04-25T07:32:47;9.30;99.90
37844;DHT22;63793;57.632;18.292;2023-04-25T07:35:14;9.30;99.90
37844;DHT22;63793;57.632;18.292;2023-04-25T07:37:41;9.40;99.90
37844;DHT22;63793;57.632;18.292;2023-04-25T07:40:14;9.30;99.90
37844;DHT22;63793;57.632;18.292;2023-04-25T07:42:48;9.40;99.90
37844;DHT22;63793;57.632;18.292;2023-04-25T07:45:21;9.40;99.90
37844;DHT22;63793;57.632;18.292;2023-04-25T07:47:48;9.30;99.90
37844;DHT22;63793;57.632;18.292;2023-04-25T07:50:15;9.30;99.90
37844;DHT22;63793;57.632;18.292;2023-04-25T07:52:42;9.30;99.90
37844;DHT22;63793;57.632;18.292;2023-04-25T07:55:21;9.30;99.90
37844;DHT22;63793;57.632;18.292;2023-04-25T07:58:07;9.30;99.90
37844;DHT22;63793;57.632;18.292;2023-04-25T08:00:36;9.20;99.90
37844;DHT22;63793;57.632;18.292;2023-04-25T08:03:32;9.20;99.90
37844;DHT22;63793;57.632;18.292;2023-04-25T08:06:02;9.40;99.90
37844;DHT22;63793;57.632;18.292;2023-04-25T08:08:39;9.50;99.90
37844;DHT22;63793;57.632;18.292;2023-04-25T08:11:09;9.60;99.90
37844;DHT22;63793;57.632;18.292;2023-04-25T08:13:36;9.70;99.90
37844;DHT22;63793;57.632;18.292;2023-04-25T08:16:03;9.70;99.90
37844;DHT22;63793;57.632;18.292;2023-04-25T08:18:30;9.80;99.90
37844;DHT22;63793;57.632;18.292;2023-04-25T08:20:57;9.80;99.90
37844;DHT22;63793;57.632;18.292;2023-04-25T08:23:24;9.80;99.90
37844;DHT22;63793;57.632;18.292;2023-04-25T08:26:00;9.80;99.90
37844;DHT22;63793;57.632;18.292;2023-04-25T08:28:28;9.80;99.90
37844;DHT22;63793;57.632;18.292;2023-04-25T08:30:57;9.90;99.90
37844;DHT22;63793;57.632;18.292;2023-04-25T08:33:27;9.80;99.90
37844;DHT22;63793;57.632;18.292;2023-04-25T08:36:21;9.90;99.90
37844;DHT22;63793;57.632;18.292;2023-04-25T08:39:06;10.10;99.90
37844;DHT22;63793;57.632;18.292;2023-04-25T08:41:41;10.00;99.90
37844;DHT22;63793;57.632;18.292;2023-04-25T08:44:10;10.20;99.90
37844;DHT22;63793;57.632;18.292;2023-04-25T08:46:38;10.30;99.90
37844;DHT22;63793;57.632;18.292;2023-04-25T08:49:17;10.40;99.90
37844;DHT22;63793;57.632;18.292;2023-04-25T08:51:45;10.50;99.90
37844;DHT22;63793;57.632;18.292;2023-04-25T08:54:21;10.50;99.90
37844;DHT22;63793;57.632;18.292;2023-04-25T08:57:04;10.60;99.90
37844;DHT22;63793;57.632;18.292;2023-04-25T08:59:32;10.80;99.90
37844;DHT22;63793;57.632;18.292;2023-04-25T09:02:00;10.80;99.90
37844;DHT22;63793;57.632;18.292;2023-04-25T09:04:31;10.80;99.90
37844;DHT22;63793;57.632;18.292;2023-04-25T09:06:58;10.90;99.90
37844;DHT22;63793;57.632;18.292;2023-04-25T09:09:25;10.80;99.90
37844;DHT22;63793;57.632;18.292;2023-04-25T09:11:54;10.80;99.90
37844;DHT22;63793;57.632;18.292;2023-04-25T09:14:23;10.90;99.90
37844;DHT22;63793;57.632;18.292;2023-04-25T09:17:09;11.00;99.90
37844;DHT22;63793;57.632;18.292;2023-04-25T09:19:46;11.20;99.90
37844;DHT22;63793;57.632;18.292;2023-04-25T09:22:21;11.20;99.90
37844;DHT22;63793;57.632;18.292;2023-04-25T09:24:49;11.20;99.90
37844;DHT22;63793;57.632;18.292;2023-04-25T09:27:20;11.30;99.90
37844;DHT22;63793;57.632;18.292;2023-04-25T09:30:00;11.30;99.90
37844;DHT22;63793;57.632;18.292;2023-04-25T09:32:39;11.30;99.90
37844;DHT22;63793;57.632;18.292;2023-04-25T09:35:06;11.10;99.90
37844;DHT22;63793;57.632;18.292;2023-04-25T09:37:35;10.80;99.90
37844;DHT22;63793;57.632;18.292;2023-04-25T09:40:06;10.50;99.90
37844;DHT22;63793;57.632;18.292;2023-04-25T09:42:46;10.40;99.90
37844;DHT22;63793;57.632;18.292;2023-04-25T09:45:13;10.60;99.90
37844;DHT22;63793;57.632;18.292;2023-04-25T09:47:42;10.60;99.90
37844;DHT22;63793;57.632;18.292;2023-04-25T09:50:16;10.50;99.90
37844;DHT22;63793;57.632;18.292;2023-04-25T09:53:02;10.30;99.90
37844;DHT22;63793;57.632;18.292;2023-04-25T09:55:34;10.30;99.90
37844;DHT22;63793;57.632;18.292;2023-04-25T09:58:05;10.60;99.90
37844;DHT22;63793;57.632;18.292;2023-04-25T10:00:36;10.80;99.90
37844;DHT22;63793;57.632;18.292;2023-04-25T10:03:19;10.90;99.90
37844;DHT22;63793;57.632;18.292;2023-04-25T10:06:05;11.00;99.90
37844;DHT22;63793;57.632;18.292;2023-04-25T10:08:35;11.00;99.90
37844;DHT22;63793;57.632;18.292;2023-04-25T10:11:07;10.90;99.90
37844;DHT22;63793;57.632;18.292;2023-04-25T10:13:35;10.80;99.90
37844;DHT22;63793;57.632;18.292;2023-04-25T10:16:03;10.80;99.90
37844;DHT22;63793;57.632;18.292;2023-04-25T10:18:32;10.60;99.90
37844;DHT22;63793;57.632;18.292;2023-04-25T10:21:04;10.50;99.90
37844;DHT22;63793;57.632;18.292;2023-04-25T10:23:31;10.30;99.90
37844;DHT22;63793;57.632;18.292;2023-04-25T10:25:59;10.30;99.90
37844;DHT22;63793;57.632;18.292;2023-04-25T10:28:26;10.30;99.90
37844;DHT22;63793;57.632;18.292;2023-04-25T10:31:06;10.30;99.90
37844;DHT22;63793;57.632;18.292;2023-04-25T10:33:39;10.30;99.90
37844;DHT22;63793;57.632;18.292;2023-04-25T10:36:21;10.30;99.90
37844;DHT22;63793;57.632;18.292;2023-04-25T10:38:50;10.20;99.90
37844;DHT22;63793;57.632;18.292;2023-04-25T10:41:18;10.40;99.90
37844;DHT22;63793;57.632;18.292;2023-04-25T10:43:47;10.50;99.90
37844;DHT22;63793;57.632;18.292;2023-04-25T10:46:29;10.50;99.90
37844;DHT22;63793;57.632;18.292;2023-04-25T10:49:02;10.70;99.90
37844;DHT22;63793;57.632;18.292;2023-04-25T10:51:33;10.80;99.90
37844;DHT22;63793;57.632;18.292;2023-04-25T10:54:22;10.70;99.90
37844;DHT22;63793;57.632;18.292;2023-04-25T10:56:51;10.70;99.90
37844;DHT22;63793;57.632;18.292;2023-04-25T10:59:19;10.60;99.90
37844;DHT22;63793;57.632;18.292;2023-04-25T11:01:51;10.70;99.90
37844;DHT22;63793;57.632;18.292;2023-04-25T11:04:24;10.80;99.90
37844;DHT22;63793;57.632;18.292;2023-04-25T11:09:45;11.20;99.90
37844;DHT22;63793;57.632;18.292;2023-04-25T11:12:12;11.30;99.90
37844;DHT22;63793;57.632;18.292;2023-04-25T11:14:39;11.30;99.90
37844;DHT22;63793;57.632;18.292;2023-04-25T11:17:11;11.20;99.90
37844;DHT22;63793;57.632;18.292;2023-04-25T11:19:38;11.40;99.90
37844;DHT22;63793;57.632;18.292;2023-04-25T11:22:05;11.40;99.90
37844;DHT22;63793;57.632;18.292;2023-04-25T11:24:35;11.30;99.90
37844;DHT22;63793;57.632;18.292;2023-04-25T11:27:04;11.40;99.90
37844;DHT22;63793;57.632;18.292;2023-04-25T11:29:32;11.60;99.90
37844;DHT22;63793;57.632;18.292;2023-04-25T11:32:00;11.40;99.90
37844;DHT22;63793;57.632;18.292;2023-04-25T11:34:32;11.60;99.90
37844;DHT22;63793;57.632;18.292;2023-04-25T11:37:02;11.60;99.90
37844;DHT22;63793;57.632;18.292;2023-04-25T11:39:30;11.80;99.90
37844;DHT22;63793;57.632;18.292;2023-04-25T11:41:57;12.00;99.90
37844;DHT22;63793;57.632;18.292;2023-04-25T11:44:26;12.20;99.90
37844;DHT22;63793;57.632;18.292;2023-04-25T11:46:53;12.20;99.90
37844;DHT22;63793;57.632;18.292;2023-04-25T11:49:20;12.10;99.90
37844;DHT22;63793;57.632;18.292;2023-04-25T11:51:49;12.20;99.90
37844;DHT22;63793;57.632;18.292;2023-04-25T11:54:16;12.30;99.90
37844;DHT22;63793;57.632;18.292;2023-04-25T11:56:44;12.40;99.90
37844;DHT22;63793;57.632;18.292;2023-04-25T11:59:12;12.60;99.90
37844;DHT22;63793;57.632;18.292;2023-04-25T12:01:41;12.70;99.90
37844;DHT22;63793;57.632;18.292;2023-04-25T12:04:19;12.70;99.90
37844;DHT22;63793;57.632;18.292;2023-04-25T12:06:50;12.70;99.90
37844;DHT22;63793;57.632;18.292;2023-04-25T12:09:29;12.70;99.90
37844;DHT22;63793;57.632;18.292;2023-04-25T12:11:57;12.80;99.90
37844;DHT22;63793;57.632;18.292;2023-04-25T12:14:29;12.80;99.90
37844;DHT22;63793;57.632;18.292;2023-04-25T12:16:58;13.00;99.90
37844;DHT22;63793;57.632;18.292;2023-04-25T12:19:32;13.00;99.90
37844;DHT22;63793;57.632;18.292;2023-04-25T12:22:01;13.10;99.90
37844;DHT22;63793;57.632;18.292;2023-04-25T12:24:32;13.10;99.90
37844;DHT22;63793;57.632;18.292;2023-04-25T12:27:06;13.00;99.90
37844;DHT22;63793;57.632;18.292;2023-04-25T12:29:35;13.10;99.90
37844;DHT22;63793;57.632;18.292;2023-04-25T12:32:05;13.10;99.90
37844;DHT22;63793;57.632;18.292;2023-04-25T12:34:32;13.10;99.90
37844;DHT22;63793;57.632;18.292;2023-04-25T12:37:01;13.20;99.90
37844;DHT22;63793;57.632;18.292;2023-04-25T12:39:28;13.20;99.90
37844;DHT22;63793;57.632;18.292;2023-04-25T12:41:55;12.90;99.90
37844;DHT22;63793;57.632;18.292;2023-04-25T12:44:22;13.00;99.90
37844;DHT22;63793;57.632;18.292;2023-04-25T12:46:48;13.20;99.90
37844;DHT22;63793;57.632;18.292;2023-04-25T12:49:16;13.20;99.90
37844;DHT22;63793;57.632;18.292;2023-04-25T12:51:45;13.40;99.90
37844;DHT22;63793;57.632;18.292;2023-04-25T12:54:12;13.50;99.90
37844;DHT22;63793;57.632;18.292;2023-04-25T12:56:38;13.50;99.90
37844;DHT22;63793;57.632;18.292;2023-04-25T12:59:05;13.50;99.90
37844;DHT22;63793;57.632;18.292;2023-04-25T13:01:32;13.60;99.90
37844;DHT22;63793;57.632;18.292;2023-04-25T13:04:02;13.70;99.90
37844;DHT22;63793;57.632;18.292;2023-04-25T13:06:29;13.50;99.90
37844;DHT22;63793;57.632;18.292;2023-04-25T13:08:58;13.50;99.90
37844;DHT22;63793;57.632;18.292;2023-04-25T13:11:25;13.50;99.90
37844;DHT22;63793;57.632;18.292;2023-04-25T13:13:52;13.60;99.90
37844;DHT22;63793;57.632;18.292;2023-04-25T13:16:20;13.50;99.90
37844;DHT22;63793;57.632;18.292;2023-04-25T13:18:48;13.70;99.90
37844;DHT22;63793;57.632;18.292;2023-04-25T13:21:15;13.60;99.90
37844;DHT22;63793;57.632;18.292;2023-04-25T13:23:42;13.40;99.90
37844;DHT22;63793;57.632;18.292;2023-04-25T13:26:13;13.50;99.90
37844;DHT22;63793;57.632;18.292;2023-04-25T13:28:40;13.70;99.90
37844;DHT22;63793;57.632;18.292;2023-04-25T13:31:10;13.90;99.90
37844;DHT22;63793;57.632;18.292;2023-04-25T13:33:37;13.90;99.90
37844;DHT22;63793;57.632;18.292;2023-04-25T13:36:04;13.90;99.90
37844;DHT22;63793;57.632;18.292;2023-04-25T13:38:31;14.20;99.90
37844;DHT22;63793;57.632;18.292;2023-04-25T13:40:58;14.00;99.90
37844;DHT22;63793;57.632;18.292;2023-04-25T13:43:25;13.90;99.90
37844;DHT22;63793;57.632;18.292;2023-04-25T13:45:52;14.00;99.90
37844;DHT22;63793;57.632;18.292;2023-04-25T13:48:19;13.90;99.90
37844;DHT22;63793;57.632;18.292;2023-04-25T13:50:46;13.80;99.90
37844;DHT22;63793;57.632;18.292;2023-04-25T13:53:13;13.80;99.90
37844;DHT22;63793;57.632;18.292;2023-04-25T13:55:41;14.00;99.90
37844;DHT22;63793;57.632;18.292;2023-04-25T13:58:07;13.80;99.90
37844;DHT22;63793;57.632;18.292;2023-04-25T14:00:37;13.90;99.90
37844;DHT22;63793;57.632;18.292;2023-04-25T14:03:06;13.90;99.90
37844;DHT22;63793;57.632;18.292;2023-04-25T14:05:36;13.70;99.90
37844;DHT22;63793;57.632;18.292;2023-04-25T14:08:08;13.60;99.90
37844;DHT22;63793;57.632;18.292;2023-04-25T14:10:36;13.60;99.90
37844;DHT22;63793;57.632;18.292;2023-04-25T14:13:03;13.70;99.90
37844;DHT22;63793;57.632;18.292;2023-04-25T14:15:31;14.00;99.90
37844;DHT22;63793;57.632;18.292;2023-04-25T14:18:00;14.20;99.90
37844;DHT22;63793;57.632;18.292;2023-04-25T14:20:27;14.20;99.90
37844;DHT22;63793;57.632;18.292;2023-04-25T14:22:54;14.00;99.90
37844;DHT22;63793;57.632;18.292;2023-04-25T14:25:23;14.20;99.90
37844;DHT22;63793;57.632;18.292;2023-04-25T14:27:50;13.90;99.90
37844;DHT22;63793;57.632;18.292;2023-04-25T14:30:18;13.50;99.90
37844;DHT22;63793;57.632;18.292;2023-04-25T14:32:46;13.30;99.90
37844;DHT22;63793;57.632;18.292;2023-04-25T14:35:13;13.40;99.90
37844;DHT22;63793;57.632;18.292;2023-04-25T14:37:40;13.50;99.90
37844;DHT22;63793;57.632;18.292;2023-04-25T14:40:07;13.90;99.90
37844;DHT22;63793;57.632;18.292;2023-04-25T14:42:39;13.90;99.90
37844;DHT22;63793;57.632;18.292;2023-04-25T14:45:07;13.80;99.90
37844;DHT22;63793;57.632;18.292;2023-04-25T14:47:36;13.60;99.90
37844;DHT22;63793;57.632;18.292;2023-04-25T14:50:05;13.30;99.90
37844;DHT22;63793;57.632;18.292;2023-04-25T14:52:32;13.00;99.90
37844;DHT22;63793;57.632;18.292;2023-04-25T14:54:58;13.00;99.90
37844;DHT22;63793;57.632;18.292;2023-04-25T14:57:28;12.90;99.90
37844;DHT22;63793;57.632;18.292;2023-04-25T14:59:55;13.10;99.90
37844;DHT22;63793;57.632;18.292;2023-04-25T15:02:23;13.20;99.90
37844;DHT22;63793;57.632;18.292;2023-04-25T15:04:50;13.20;99.90
37844;DHT22;63793;57.632;18.292;2023-04-25T15:07:17;13.10;99.90
37844;DHT22;63793;57.632;18.292;2023-04-25T15:09:44;13.00;99.90
37844;DHT22;63793;57.632;18.292;2023-04-25T15:12:12;13.00;99.90
37844;DHT22;63793;57.632;18.292;2023-04-25T15:14:38;13.20;99.90
37844;DHT22;63793;57.632;18.292;2023-04-25T15:17:05;13.00;99.90
37844;DHT22;63793;57.632;18.292;2023-04-25T15:19:32;13.30;99.90
37844;DHT22;63793;57.632;18.292;2023-04-25T15:21:59;13.20;99.90
37844;DHT22;63793;57.632;18.292;2023-04-25T15:24:30;13.10;99.90
37844;DHT22;63793;57.632;18.292;2023-04-25T15:26:57;12.90;99.90
37844;DHT22;63793;57.632;18.292;2023-04-25T15:29:24;12.70;99.90
37844;DHT22;63793;57.632;18.292;2023-04-25T15:31:53;12.80;99.90
37844;DHT22;63793;57.632;18.292;2023-04-25T15:34:20;12.60;99.90
37844;DHT22;63793;57.632;18.292;2023-04-25T15:36:47;12.60;99.90
37844;DHT22;63793;57.632;18.292;2023-04-25T15:39:14;12.40;99.90
37844;DHT22;63793;57.632;18.292;2023-04-25T15:41:41;12.10;99.90
37844;DHT22;63793;57.632;18.292;2023-04-25T15:44:07;12.00;99.90
37844;DHT22;63793;57.632;18.292;2023-04-25T15:46:37;11.90;99.90
37844;DHT22;63793;57.632;18.292;2023-04-25T15:49:04;11.60;99.90